Time;durP1;ratioP1;P1;durP2;ratioP2;P2;SDS_P1;SDS_P2;PMS_P1;PMS_P2;Temp;Humidity;BMP_temperature;BMP_pressure;BME280_temperature;BME280_humidity;BME280_pressure;Samples;Min_cycle;Max_cycle;Signal;HPM_P1;HPM_P2
2021/12/15 00:00:06;;;;;;;63.03;23.60;;;3.50;99.90;;;;;;5074864;28;20410;-79
2021/12/15 00:02:31;;;;;;;64.83;24.87;;;3.50;99.90;;;;;;5074406;28;20028;-79
2021/12/15 00:04:57;;;;;;;59.77;25.27;;;3.60;99.90;;;;;;5074855;28;20036;-79
2021/12/15 00:07:27;;;;;;;61.40;24.23;;;3.50;99.90;;;;;;5074898;28;20085;-79
2021/12/15 00:09:53;;;;;;;65.23;23.50;;;3.50;99.90;;;;;;5074976;28;20039;-79
2021/12/15 00:12:20;;;;;;;61.70;23.27;;;3.50;99.90;;;;;;5074742;28;20036;-79
2021/12/15 00:14:46;;;;;;;55.30;23.20;;;3.60;99.90;;;;;;5074653;28;20119;-79
2021/12/15 00:17:12;;;;;;;56.47;23.07;;;3.50;99.90;;;;;;5056825;28;20029;-79
2021/12/15 00:19:38;;;;;;;54.07;21.87;;;3.50;99.90;;;;;;5074671;28;20814;-79
2021/12/15 00:22:05;;;;;;;59.50;22.70;;;3.50;99.90;;;;;;5074383;28;20048;-79
2021/12/15 00:24:31;;;;;;;57.13;22.73;;;3.50;99.90;;;;;;5056526;28;20458;-79
2021/12/15 00:26:57;;;;;;;54.67;22.20;;;3.50;99.90;;;;;;5074404;28;20028;-79
2021/12/15 00:29:24;;;;;;;60.27;24.40;;;3.50;99.90;;;;;;5074628;28;20074;-79
2021/12/15 00:31:51;;;;;;;60.87;23.23;;;3.50;99.90;;;;;;5074432;28;20028;-79
2021/12/15 00:34:17;;;;;;;54.73;23.57;;;3.50;99.90;;;;;;5074602;28;20029;-79
2021/12/15 00:36:44;;;;;;;55.60;22.23;;;3.50;99.90;;;;;;5074454;28;20032;-79
2021/12/15 00:39:13;;;;;;;63.37;23.57;;;3.50;99.90;;;;;;5074283;28;20068;-79
2021/12/15 00:41:40;;;;;;;63.63;23.77;;;3.50;99.90;;;;;;5074301;28;20066;-79
2021/12/15 00:44:06;;;;;;;65.10;24.00;;;3.50;99.90;;;;;;5074092;28;20060;-79
2021/12/15 00:46:32;;;;;;;59.80;23.73;;;3.50;99.90;;;;;;5056360;28;20078;-79
2021/12/15 00:48:58;;;;;;;61.07;22.97;;;3.50;99.90;;;;;;5073938;28;20021;-79
2021/12/15 00:51:24;;;;;;;58.00;22.90;;;3.50;99.90;;;;;;5073865;28;20039;-79
2021/12/15 00:53:50;;;;;;;66.10;25.60;;;3.50;99.90;;;;;;5073823;28;20089;-79
2021/12/15 00:56:16;;;;;;;67.73;25.73;;;3.50;99.90;;;;;;5074040;28;20032;-79
2021/12/15 00:58:42;;;;;;;70.00;26.93;;;3.50;99.90;;;;;;5073670;28;20048;-79
2021/12/15 01:01:08;;;;;;;67.10;27.47;;;3.50;99.90;;;;;;5073511;28;20036;-79
2021/12/15 01:03:34;;;;;;;71.50;27.47;;;3.50;99.90;;;;;;5073896;28;20373;-79
2021/12/15 01:06:09;;;;;;;61.07;24.17;;;3.50;99.90;;;;;;5073752;28;20108;-79
2021/12/15 01:08:41;;;;;;;65.70;24.45;;;3.50;99.90;;;;;;5073813;28;20040;-79
2021/12/15 01:11:21;;;;;;;62.97;23.97;;;3.50;99.90;;;;;;5073616;28;20102;-79
2021/12/15 01:22:08;;;;;;;74.80;27.33;;;3.50;99.90;;;;;;5072795;28;20039;-79
2021/12/15 01:24:34;;;;;;;56.63;22.60;;;3.50;99.90;;;;;;5055563;28;20111;-79
2021/12/15 01:27:00;;;;;;;47.60;20.83;;;3.60;99.90;;;;;;5073390;28;20365;-79
2021/12/15 01:29:26;;;;;;;41.37;18.67;;;3.60;99.90;;;;;;5073825;28;20047;-79
2021/12/15 01:31:51;;;;;;;50.97;22.07;;;3.60;99.90;;;;;;5073243;28;20055;-79
2021/12/15 01:34:17;;;;;;;51.83;20.60;;;3.60;99.90;;;;;;5073119;28;20064;-79
2021/12/15 01:36:43;;;;;;;52.80;21.07;;;3.60;99.90;;;;;;5055171;28;20032;-79
2021/12/15 01:39:09;;;;;;;44.23;20.23;;;3.60;99.90;;;;;;5072948;28;20044;-79
2021/12/15 01:41:38;;;;;;;60.77;23.07;;;3.60;99.90;;;;;;5054949;28;20027;-79
2021/12/15 01:49:32;;;;;;;55.20;22.27;;;3.60;99.90;;;;;;5072545;28;20105;-79
2021/12/15 01:52:02;;;;;;;55.33;21.67;;;3.50;99.90;;;;;;5053153;28;20104;-79
2021/12/15 01:54:30;;;;;;;54.20;22.40;;;3.60;99.90;;;;;;5053074;28;20029;-79
2021/12/15 01:56:57;;;;;;;59.70;24.20;;;3.50;99.90;;;;;;5053020;28;20029;-79
2021/12/15 01:59:25;;;;;;;57.47;23.27;;;3.60;99.90;;;;;;5052744;28;20036;-79
2021/12/15 02:01:51;;;;;;;58.90;23.77;;;3.60;99.90;;;;;;5052877;28;20116;-79
2021/12/15 02:04:19;;;;;;;50.80;22.47;;;3.60;99.90;;;;;;5052201;28;20039;-79
2021/12/15 02:06:45;;;;;;;57.60;22.93;;;3.60;99.90;;;;;;5052922;28;20040;-79
2021/12/15 02:09:17;;;;;;;61.67;24.43;;;3.60;99.90;;;;;;5052803;28;20736;-79
2021/12/15 02:11:43;;;;;;;54.60;21.93;;;3.60;99.90;;;;;;5052759;28;20029;-79
2021/12/15 02:14:11;;;;;;;58.40;23.43;;;3.60;99.90;;;;;;5052494;28;20025;-79
2021/12/15 02:16:37;;;;;;;53.97;20.37;;;3.60;99.90;;;;;;5052479;28;20055;-79
2021/12/15 02:19:03;;;;;;;60.70;23.70;;;3.60;99.90;;;;;;5059513;28;20085;-79
2021/12/15 02:21:29;;;;;;;63.23;24.30;;;3.60;99.90;;;;;;5072312;28;20062;-79
2021/12/15 02:23:59;;;;;;;57.97;22.03;;;3.60;99.90;;;;;;5072250;28;20385;-79
2021/12/15 02:26:34;;;;;;;64.30;24.07;;;3.60;99.90;;;;;;5072364;28;20025;-79
2021/12/15 02:29:02;;;;;;;67.97;24.60;;;3.60;99.90;;;;;;5072229;28;20021;-79
2021/12/15 02:31:52;;;;;;;71.17;25.07;;;3.60;99.90;;;;;;5054056;28;20028;-79
2021/12/15 02:37:31;;;;;;;59.87;24.07;;;3.50;99.90;;;;;;5072059;28;20384;-79
2021/12/15 02:39:37;;;;;;;61.37;24.70;;;3.60;99.90;;;;;;5060720;28;20774;-79
2021/12/15 02:42:04;;;;;;;73.23;25.87;;;3.60;99.90;;;;;;5072129;28;20029;-79
2021/12/15 02:44:29;;;;;;;69.77;24.93;;;3.60;99.90;;;;;;5072134;28;20526;-79
2021/12/15 02:46:55;;;;;;;65.57;25.33;;;3.50;99.90;;;;;;5071948;28;20044;-79
2021/12/15 02:49:28;;;;;;;58.57;24.10;;;3.50;99.90;;;;;;5053837;28;20040;-79
2021/12/15 02:51:57;;;;;;;60.77;24.50;;;3.50;99.90;;;;;;5071796;28;20079;-79
2021/12/15 02:54:24;;;;;;;61.90;24.03;;;3.50;99.90;;;;;;5072289;28;20036;-79
2021/12/15 02:56:52;;;;;;;61.63;24.27;;;3.50;99.90;;;;;;5071907;28;20028;-79
2021/12/15 02:59:26;;;;;;;54.77;23.83;;;3.50;99.90;;;;;;5071623;28;20087;-79
2021/12/15 03:02:00;;;;;;;63.77;24.20;;;3.50;99.90;;;;;;5071835;28;20056;-79
2021/12/15 03:04:41;;;;;;;50.47;22.00;;;3.50;99.90;;;;;;5072001;28;20074;-79
2021/12/15 03:07:27;;;;;;;61.40;23.73;;;3.50;99.90;;;;;;5071887;28;20047;-79
2021/12/15 03:18:11;;;;;;;62.90;23.43;;;3.50;99.90;;;;;;5075528;28;20020;-79
2021/12/15 03:20:46;;;;;;;65.00;24.10;;;3.50;99.90;;;;;;5075698;28;20428;-78
2021/12/15 03:23:14;;;;;;;65.30;26.77;;;3.50;99.90;;;;;;5075542;28;20411;-79
2021/12/15 03:25:40;;;;;;;62.30;24.43;;;3.50;99.90;;;;;;5075646;28;20034;-79
2021/12/15 03:33:55;;;;;;;59.58;22.42;;;3.50;99.90;;;;;;5075647;28;20035;-79
2021/12/15 03:36:37;;;;;;;59.40;22.60;;;3.50;99.90;;;;;;5075487;28;20035;-79
2021/12/15 03:39:06;;;;;;;51.97;22.13;;;3.50;99.90;;;;;;5075336;28;20048;-79
2021/12/15 03:41:32;;;;;;;49.17;22.00;;;3.50;99.90;;;;;;5075191;28;20458;-79
2021/12/15 03:43:57;;;;;;;54.60;22.57;;;3.60;99.90;;;;;;5075151;28;20232;-79
2021/12/15 03:46:23;;;;;;;55.97;22.97;;;3.50;99.90;;;;;;5056728;28;20029;-79
2021/12/15 03:48:49;;;;;;;58.23;23.50;;;3.50;99.90;;;;;;5074721;28;20071;-79
2021/12/15 03:51:15;;;;;;;59.03;23.03;;;3.50;99.90;;;;;;5074969;28;20388;-79
2021/12/15 03:53:43;;;;;;;53.43;21.67;;;3.50;99.90;;;;;;5074818;28;20020;-79
2021/12/15 03:56:12;;;;;;;57.47;22.67;;;3.60;99.90;;;;;;5074862;28;20021;-79
2021/12/15 03:58:38;;;;;;;59.07;22.40;;;3.60;99.90;;;;;;5074631;28;20101;-79
2021/12/15 04:01:09;;;;;;;63.67;22.87;;;3.60;99.90;;;;;;5074138;28;20389;-78
2021/12/15 04:03:39;;;;;;;61.17;24.50;;;3.70;99.90;;;;;;5074369;28;20027;-79
2021/12/15 04:06:08;;;;;;;57.87;22.63;;;3.80;99.90;;;;;;5074286;28;20021;-79
2021/12/15 04:08:35;;;;;;;51.33;20.87;;;3.90;99.90;;;;;;5074381;28;20024;-79
2021/12/15 04:11:03;;;;;;;46.87;20.93;;;4.00;99.90;;;;;;5074374;28;20510;-78
2021/12/15 04:13:28;;;;;;;43.73;20.03;;;4.00;99.90;;;;;;5074464;28;20028;-79
2021/12/15 04:15:57;;;;;;;38.20;18.13;;;4.00;99.90;;;;;;5074973;28;20532;-78
2021/12/15 04:18:25;;;;;;;35.50;17.67;;;4.00;99.90;;;;;;5074908;28;20115;-79
2021/12/15 04:20:52;;;;;;;36.47;17.47;;;3.90;99.90;;;;;;5074677;28;20033;-79
2021/12/15 04:23:20;;;;;;;35.43;17.00;;;3.90;99.90;;;;;;5074178;28;20021;-79
2021/12/15 04:25:49;;;;;;;34.93;16.77;;;3.90;99.90;;;;;;5074312;28;20016;-79
2021/12/15 04:28:19;;;;;;;38.00;18.77;;;4.00;99.90;;;;;;5073837;28;20366;-79
2021/12/15 04:30:48;;;;;;;36.10;18.50;;;4.00;99.90;;;;;;5056063;28;20339;-79
2021/12/15 04:33:20;;;;;;;37.00;17.80;;;3.90;99.90;;;;;;5074330;28;20032;-79
2021/12/15 04:35:46;;;;;;;34.37;17.27;;;4.00;99.90;;;;;;5074070;28;20020;-79
2021/12/15 04:38:13;;;;;;;33.80;17.23;;;4.00;99.90;;;;;;5073966;28;20031;-79
2021/12/15 04:40:41;;;;;;;37.43;18.30;;;4.00;99.90;;;;;;5074173;28;20029;-79
2021/12/15 04:43:07;;;;;;;33.43;16.63;;;4.00;99.90;;;;;;5074229;28;20017;-79
2021/12/15 04:45:33;;;;;;;36.93;18.30;;;4.00;99.90;;;;;;5073853;28;20039;-79
2021/12/15 04:47:59;;;;;;;34.90;17.53;;;4.00;99.90;;;;;;5056132;28;20036;-79
2021/12/15 04:50:28;;;;;;;35.50;16.33;;;3.90;99.90;;;;;;5056196;28;20036;-79
2021/12/15 04:52:58;;;;;;;36.27;18.07;;;3.90;99.90;;;;;;5074048;28;20043;-79
2021/12/15 04:55:25;;;;;;;35.17;18.33;;;3.90;99.90;;;;;;5073770;28;20535;-79
2021/12/15 04:57:51;;;;;;;37.80;19.03;;;3.80;99.90;;;;;;5055918;28;20102;-79
2021/12/15 05:00:21;;;;;;;38.80;18.30;;;3.70;99.90;;;;;;5073793;28;20032;-79
2021/12/15 05:02:47;;;;;;;37.50;17.97;;;3.70;99.90;;;;;;5073903;28;20176;-79
2021/12/15 05:05:13;;;;;;;36.60;18.97;;;3.70;99.90;;;;;;5073277;28;20129;-79
2021/12/15 05:07:38;;;;;;;39.03;19.10;;;3.70;99.90;;;;;;5073298;28;20082;-79
2021/12/15 05:10:08;;;;;;;37.23;18.50;;;3.70;99.90;;;;;;5073135;28;20029;-80
2021/12/15 05:12:35;;;;;;;35.57;17.77;;;3.70;99.90;;;;;;5071871;28;20024;-80
2021/12/15 05:15:01;;;;;;;35.73;18.07;;;3.70;99.90;;;;;;5071882;28;20033;-80
2021/12/15 05:17:26;;;;;;;38.80;18.53;;;3.70;99.90;;;;;;5071690;28;20031;-80
2021/12/15 05:19:57;;;;;;;38.80;18.33;;;3.60;99.90;;;;;;5071727;28;20824;-79
2021/12/15 05:22:22;;;;;;;72.30;36.43;;;3.70;99.90;;;;;;5071762;28;20021;-79
2021/12/15 05:24:48;;;;;;;86.10;52.00;;;3.70;99.90;;;;;;5071719;28;20461;-79
2021/12/15 05:27:16;;;;;;;36.90;21.20;;;3.70;99.90;;;;;;5069426;28;20059;-79
2021/12/15 05:29:44;;;;;;;39.20;19.23;;;3.60;99.90;;;;;;5061222;28;20037;-79
2021/12/15 05:32:13;;;;;;;36.73;17.77;;;3.70;99.90;;;;;;5066427;28;20021;-79
2021/12/15 05:34:40;;;;;;;39.63;18.17;;;3.80;99.90;;;;;;5068796;28;20033;-79
2021/12/15 05:37:06;;;;;;;37.77;19.53;;;3.80;99.90;;;;;;5068907;28;20017;-79
2021/12/15 05:39:32;;;;;;;42.77;19.80;;;3.80;99.90;;;;;;5051738;28;20045;-79
2021/12/15 05:41:58;;;;;;;44.20;20.43;;;3.70;99.90;;;;;;5050806;28;20350;-79
2021/12/15 05:44:25;;;;;;;40.40;19.23;;;3.70;99.90;;;;;;5068861;28;20053;-79
2021/12/15 05:46:54;;;;;;;47.07;20.97;;;3.60;99.90;;;;;;5053469;28;20461;-79
2021/12/15 05:49:20;;;;;;;38.23;19.80;;;3.60;99.90;;;;;;5065806;28;20013;-78
2021/12/15 05:51:47;;;;;;;36.70;18.93;;;3.60;99.90;;;;;;5065471;28;20373;-79
2021/12/15 05:54:14;;;;;;;34.87;18.63;;;3.60;99.90;;;;;;5068528;28;20016;-79
2021/12/15 05:56:40;;;;;;;38.23;18.33;;;3.60;99.90;;;;;;5050410;28;20473;-79
2021/12/15 05:59:09;;;;;;;36.17;18.27;;;3.60;99.90;;;;;;5070160;28;20024;-80
2021/12/15 06:01:36;;;;;;;35.90;18.27;;;3.60;99.90;;;;;;5069306;28;20826;-78
2021/12/15 06:04:04;;;;;;;32.57;16.93;;;3.60;99.90;;;;;;5069196;28;20122;-77
2021/12/15 06:06:29;;;;;;;34.27;17.53;;;3.60;99.90;;;;;;5068220;28;20027;-77
2021/12/15 06:08:56;;;;;;;32.57;17.27;;;3.60;99.90;;;;;;5066028;28;20028;-78
2021/12/15 06:11:21;;;;;;;37.53;18.00;;;3.70;99.90;;;;;;5066153;28;20131;-78
2021/12/15 06:13:49;;;;;;;36.57;17.00;;;3.70;99.90;;;;;;5068805;28;20509;-78
2021/12/15 06:16:17;;;;;;;33.57;17.53;;;3.70;99.90;;;;;;5069033;28;20356;-78
2021/12/15 06:18:42;;;;;;;33.30;17.17;;;3.80;99.90;;;;;;5068192;28;20047;-78
2021/12/15 06:21:08;;;;;;;35.33;16.83;;;3.80;99.90;;;;;;5070051;28;20067;-78
2021/12/15 06:23:34;;;;;;;35.33;17.57;;;3.80;99.90;;;;;;5070439;28;20096;-78
2021/12/15 06:26:01;;;;;;;38.70;17.17;;;3.90;99.90;;;;;;5070638;28;20115;-78
2021/12/15 06:28:29;;;;;;;34.10;17.63;;;4.00;99.90;;;;;;5052142;28;20469;-78
2021/12/15 06:30:57;;;;;;;36.37;18.63;;;4.00;99.90;;;;;;5069767;28;20063;-78
2021/12/15 06:33:24;;;;;;;38.70;18.57;;;3.90;99.90;;;;;;5070323;28;20039;-78
2021/12/15 06:35:55;;;;;;;37.70;19.43;;;3.90;99.90;;;;;;5052090;28;20035;-78
2021/12/15 06:38:23;;;;;;;43.17;19.50;;;3.90;99.90;;;;;;5069652;28;20560;-78
2021/12/15 06:40:49;;;;;;;45.30;22.23;;;3.90;99.90;;;;;;5070016;28;20025;-77
2021/12/15 06:43:18;;;;;;;56.67;23.53;;;3.90;99.90;;;;;;5070376;28;20047;-77
2021/12/15 06:59:35;;;;;;;56.33;25.30;;;3.70;99.90;;;;;;5068554;28;20039;-77
2021/12/15 07:02:02;;;;;;;51.80;23.90;;;3.70;99.90;;;;;;5050209;28;20275;-78
2021/12/15 07:04:28;;;;;;;59.40;26.60;;;3.80;99.90;;;;;;5071461;28;20132;-77
2021/12/15 07:06:53;;;;;;;55.50;23.20;;;3.80;99.90;;;;;;5053519;28;20377;-77
2021/12/15 07:09:20;;;;;;;55.23;25.30;;;3.80;99.90;;;;;;5070442;28;20032;-77
2021/12/15 07:11:47;;;;;;;67.90;30.80;;;3.80;99.90;;;;;;5070397;28;20037;-77
2021/12/15 07:14:12;;;;;;;63.60;25.90;;;3.80;99.90;;;;;;5071244;28;20392;-77
2021/12/15 07:16:42;;;;;;;64.70;28.13;;;3.80;99.90;;;;;;5053122;28;20028;-77
2021/12/15 07:19:19;;;;;;;53.20;26.17;;;3.80;99.90;;;;;;5071242;28;20442;-77
2021/12/15 07:22:07;;;;;;;59.50;27.57;;;3.80;99.90;;;;;;5070036;28;20051;-80
2021/12/15 07:24:34;;;;;;;55.40;26.30;;;3.90;99.90;;;;;;5072556;28;20036;-77
2021/12/15 07:27:01;;;;;;;53.77;24.40;;;3.90;99.90;;;;;;5069150;28;20036;-81
2021/12/15 07:29:28;;;;;;;50.90;23.07;;;3.80;99.90;;;;;;5071383;28;20086;-78
2021/12/15 07:31:54;;;;;;;52.77;23.57;;;3.90;99.90;;;;;;5067146;28;20034;-79
2021/12/15 07:34:20;;;;;;;51.37;21.50;;;3.90;99.90;;;;;;5067265;28;20032;-79
2021/12/15 07:36:45;;;;;;;53.30;25.07;;;3.90;99.90;;;;;;5070131;28;20040;-79
2021/12/15 07:39:12;;;;;;;51.03;24.00;;;3.90;99.90;;;;;;5069945;28;20055;-79
2021/12/15 07:41:49;;;;;;;58.90;25.93;;;3.80;99.90;;;;;;5070633;28;20056;-79
2021/12/15 07:44:18;;;;;;;53.03;23.73;;;3.80;99.90;;;;;;5068792;28;20053;-79
2021/12/15 07:46:46;;;;;;;49.77;22.20;;;3.80;99.90;;;;;;5070290;28;20035;-79
2021/12/15 07:49:12;;;;;;;47.90;22.83;;;3.90;99.90;;;;;;5051629;28;20082;-79
2021/12/15 07:51:41;;;;;;;46.17;22.03;;;4.00;99.90;;;;;;5051087;28;20032;-79
2021/12/15 07:54:06;;;;;;;44.30;21.73;;;4.10;99.90;;;;;;5068619;28;20024;-79
2021/12/15 07:56:32;;;;;;;41.60;20.80;;;4.20;99.90;;;;;;5071094;28;20741;-83
2021/12/15 07:58:58;;;;;;;43.50;22.37;;;4.20;99.90;;;;;;5069800;28;20035;-79
2021/12/15 08:01:24;;;;;;;40.20;21.27;;;4.20;99.90;;;;;;5070798;28;20087;-80
2021/12/15 08:03:54;;;;;;;43.17;21.10;;;4.20;99.90;;;;;;5073276;28;20020;-80
2021/12/15 08:06:20;;;;;;;40.70;21.23;;;4.30;99.90;;;;;;5072138;28;20036;-80
2021/12/15 08:08:46;;;;;;;36.73;20.60;;;4.20;99.90;;;;;;5075063;28;20655;-80
2021/12/15 08:11:11;;;;;;;40.30;21.40;;;4.30;99.90;;;;;;5074093;28;20043;-80
2021/12/15 08:13:37;;;;;;;43.63;23.37;;;4.40;99.90;;;;;;5053983;28;20035;-80
2021/12/15 08:16:04;;;;;;;48.30;24.17;;;4.40;99.90;;;;;;5073812;28;20675;-80
2021/12/15 08:18:30;;;;;;;44.67;25.77;;;4.50;99.90;;;;;;5073079;28;20070;-80
2021/12/15 08:20:56;;;;;;;48.67;25.93;;;4.70;99.90;;;;;;5074700;28;20111;-80
2021/12/15 08:23:23;;;;;;;47.47;24.90;;;4.70;99.90;;;;;;5073481;28;20057;-80
2021/12/15 08:25:49;;;;;;;49.73;25.33;;;4.70;99.90;;;;;;5056443;28;20074;-80
2021/12/15 08:28:15;;;;;;;46.47;25.43;;;4.70;99.90;;;;;;5074687;28;20028;-80
2021/12/15 08:30:43;;;;;;;44.63;23.90;;;4.60;99.90;;;;;;5074295;28;20476;-79
2021/12/15 08:33:14;;;;;;;48.03;24.47;;;4.50;99.90;;;;;;5072837;28;20030;-79
2021/12/15 08:35:43;;;;;;;48.03;25.60;;;4.40;99.90;;;;;;5074234;28;20039;-80
2021/12/15 08:38:10;;;;;;;49.30;25.63;;;4.40;99.90;;;;;;5073078;28;20115;-79
2021/12/15 08:40:36;;;;;;;48.53;25.07;;;4.40;99.90;;;;;;5073091;28;20043;-80
2021/12/15 08:43:03;;;;;;;47.50;24.93;;;4.30;99.90;;;;;;5070782;28;20033;-80
2021/12/15 08:45:30;;;;;;;53.47;27.27;;;4.30;99.90;;;;;;5072131;28;21347;-80
2021/12/15 08:47:58;;;;;;;50.63;27.13;;;4.20;99.90;;;;;;5071875;28;20079;-80
2021/12/15 08:50:32;;;;;;;44.70;22.97;;;4.30;99.90;;;;;;5070468;28;20073;-80
2021/12/15 08:53:00;;;;;;;44.27;23.67;;;4.50;99.90;;;;;;5070227;28;20151;-80
2021/12/15 08:55:27;;;;;;;41.63;22.73;;;4.50;99.90;;;;;;5074219;28;20108;-80
2021/12/15 08:57:56;;;;;;;48.07;24.27;;;4.50;99.90;;;;;;5074186;28;20031;-79
2021/12/15 09:00:25;;;;;;;46.27;23.97;;;4.50;99.90;;;;;;5075043;28;20035;-80
2021/12/15 09:02:52;;;;;;;42.63;22.40;;;4.50;99.90;;;;;;5075154;28;20089;-80
2021/12/15 09:05:21;;;;;;;39.23;21.17;;;4.60;99.90;;;;;;5075500;28;20028;-80
2021/12/15 09:07:52;;;;;;;38.63;21.70;;;4.70;99.90;;;;;;5075135;28;20040;-79
2021/12/15 09:10:20;;;;;;;35.83;20.67;;;4.80;99.90;;;;;;5074635;28;20036;-80
2021/12/15 09:12:46;;;;;;;36.47;21.37;;;4.80;99.90;;;;;;5074790;28;20064;-79
2021/12/15 09:15:12;;;;;;;41.57;23.10;;;4.80;99.90;;;;;;5074789;28;20555;-80
2021/12/15 09:17:38;;;;;;;38.60;22.17;;;4.80;99.90;;;;;;5074731;28;20085;-80
2021/12/15 09:20:09;;;;;;;35.57;22.50;;;4.70;99.90;;;;;;5074074;28;20032;-80
2021/12/15 09:22:38;;;;;;;37.97;21.73;;;4.80;99.90;;;;;;5074527;28;20035;-80
2021/12/15 09:25:08;;;;;;;39.90;24.43;;;4.70;99.90;;;;;;5074996;28;20111;-80
2021/12/15 09:27:36;;;;;;;42.60;23.23;;;4.70;99.90;;;;;;5074442;28;20035;-79
2021/12/15 09:30:08;;;;;;;44.07;23.10;;;4.70;99.90;;;;;;5074809;28;20071;-79
2021/12/15 09:32:34;;;;;;;33.60;16.33;;;4.60;99.90;;;;;;5073961;28;20529;-79
2021/12/15 09:34:59;;;;;;;34.63;20.23;;;4.60;99.90;;;;;;5074489;28;20035;-79
2021/12/15 09:37:28;;;;;;;28.80;16.53;;;4.60;99.90;;;;;;5074671;28;20781;-80
2021/12/15 09:39:55;;;;;;;39.70;21.57;;;4.60;99.90;;;;;;5072908;28;20260;-79
2021/12/15 09:42:25;;;;;;;38.13;21.73;;;4.50;99.90;;;;;;5077618;28;20035;-77
2021/12/15 09:44:54;;;;;;;26.20;13.80;;;4.50;99.90;;;;;;5085717;28;20100;-77
2021/12/15 09:47:41;;;;;;;31.43;17.53;;;4.50;99.90;;;;;;5077787;28;20479;-70
2021/12/15 10:04:11;;;;;;;22.57;13.60;;;4.80;99.90;;;;;;5076630;28;20031;-76
2021/12/15 10:10:40;;;;;;;22.95;12.50;;;4.90;99.90;;;;;;5075472;28;20409;-76
2021/12/15 10:17:45;;;;;;;16.35;10.10;;;5.00;99.90;;;;;;5076312;28;20054;-76
2021/12/15 10:20:08;;;;;;;18.40;9.83;;;5.00;99.90;;;;;;5076729;28;20072;-75
2021/12/15 10:22:39;;;;;;;17.17;9.87;;;5.20;99.90;;;;;;5078533;28;20031;-76
2021/12/15 10:25:08;;;;;;;15.37;9.40;;;5.20;99.90;;;;;;5077566;28;20029;-76
2021/12/15 10:27:50;;;;;;;14.47;8.23;;;5.30;99.90;;;;;;5079110;28;20085;-76
2021/12/15 10:30:31;;;;;;;17.43;9.73;;;5.20;99.90;;;;;;5077208;28;20804;-76
2021/12/15 10:33:06;;;;;;;15.03;8.47;;;5.30;99.90;;;;;;5077610;28;20107;-76
2021/12/15 10:35:44;;;;;;;14.03;8.53;;;5.30;99.90;;;;;;5077367;28;20042;-76
2021/12/15 10:38:18;;;;;;;17.57;9.93;;;5.30;99.90;;;;;;5076875;28;20032;-76
2021/12/15 10:41:11;;;;;;;16.90;10.87;;;5.30;99.90;;;;;;5058579;28;20168;-76
2021/12/15 10:43:42;;;;;;;17.00;10.63;;;5.40;99.90;;;;;;5078397;28;20073;-76
2021/12/15 10:46:17;;;;;;;16.03;9.53;;;5.40;99.90;;;;;;5077391;28;20166;-76
2021/12/15 10:48:56;;;;;;;16.23;8.75;;;5.30;99.90;;;;;;5076833;28;20036;-76
2021/12/15 10:51:54;;;;;;;14.53;8.60;;;5.30;99.90;;;;;;5077673;28;20077;-76
2021/12/15 10:54:36;;;;;;;18.30;10.97;;;5.20;99.90;;;;;;5057435;28;20431;-76
2021/12/15 10:57:17;;;;;;;16.50;9.73;;;5.30;99.90;;;;;;5078328;28;20028;-76
2021/12/15 10:59:46;;;;;;;15.37;8.63;;;5.20;99.90;;;;;;5075726;28;20028;-75
2021/12/15 11:02:12;;;;;;;14.37;7.73;;;5.30;99.90;;;;;;5078134;28;20021;-75
2021/12/15 11:04:43;;;;;;;13.03;8.73;;;5.40;99.90;;;;;;5079412;28;20082;-75
2021/12/15 11:07:29;;;;;;;14.60;8.07;;;5.40;99.90;;;;;;5091156;28;20024;-75
2021/12/15 11:09:57;;;;;;;16.77;8.13;;;5.40;99.90;;;;;;5091340;28;20032;-75
2021/12/15 11:12:36;;;;;;;14.40;8.37;;;5.40;99.90;;;;;;5092091;28;20371;-75
2021/12/15 11:15:13;;;;;;;22.13;15.40;;;5.40;99.90;;;;;;5092434;28;20424;-76
2021/12/15 11:17:44;;;;;;;16.77;9.90;;;5.50;99.90;;;;;;5092162;28;20020;-75
2021/12/15 11:20:24;;;;;;;13.67;7.37;;;5.50;99.90;;;;;;5091814;28;20119;-75
2021/12/15 11:23:20;;;;;;;16.67;7.73;;;5.40;99.90;;;;;;5087637;28;20099;-75
2021/12/15 11:25:54;;;;;;;13.50;7.93;;;5.30;99.90;;;;;;5071378;28;20041;-75
2021/12/15 11:28:39;;;;;;;11.80;7.87;;;5.20;99.90;;;;;;5053743;28;20437;-75
2021/12/15 11:31:28;;;;;;;14.95;9.48;;;5.30;99.90;;;;;;5053709;28;20108;-76
2021/12/15 11:33:59;;;;;;;14.53;8.67;;;5.20;99.90;;;;;;5071578;28;20037;-79
2021/12/15 11:36:32;;;;;;;13.13;7.60;;;5.30;99.90;;;;;;5073059;28;20044;-75
2021/12/15 11:38:57;;;;;;;15.50;7.83;;;5.30;99.90;;;;;;5077966;28;20052;-75
2021/12/15 11:41:34;;;;;;;13.03;7.70;;;5.20;99.90;;;;;;5063048;28;20112;-75
2021/12/15 11:44:12;;;;;;;14.07;7.70;;;5.30;99.90;;;;;;5082182;28;20031;-75
2021/12/15 11:46:51;;;;;;;10.23;6.70;;;5.40;99.90;;;;;;5082708;28;20480;-75
2021/12/15 11:49:29;;;;;;;16.30;8.43;;;5.40;99.90;;;;;;5062455;28;20496;-75
2021/12/15 11:51:57;;;;;;;10.63;6.37;;;5.40;99.90;;;;;;5082099;28;20029;-75
2021/12/15 11:54:33;;;;;;;13.57;8.70;;;5.40;99.90;;;;;;5079022;28;20058;-75
2021/12/15 11:57:16;;;;;;;11.68;7.63;;;5.50;99.90;;;;;;5083963;28;20115;-75
2021/12/15 11:59:49;;;;;;;11.70;5.60;;;5.50;99.90;;;;;;5081572;28;20030;-75
2021/12/15 12:02:23;;;;;;;8.80;5.90;;;5.50;99.90;;;;;;5081370;28;20039;-75
2021/12/15 12:04:52;;;;;;;8.90;5.00;;;5.50;99.90;;;;;;5080831;28;20028;-75
2021/12/15 12:07:22;;;;;;;9.93;7.00;;;5.50;99.90;;;;;;5063818;28;20104;-75
2021/12/15 12:09:55;;;;;;;8.43;5.23;;;5.50;99.90;;;;;;5080576;28;20139;-75
2021/12/15 12:12:28;;;;;;;10.10;7.10;;;5.40;99.90;;;;;;5081723;28;20036;-75
2021/12/15 12:14:55;;;;;;;8.70;5.87;;;5.30;99.90;;;;;;5087048;28;20040;-75
2021/12/15 12:17:22;;;;;;;8.57;5.97;;;5.30;99.90;;;;;;5063168;28;20494;-75
2021/12/15 12:19:58;;;;;;;8.83;5.67;;;5.30;99.90;;;;;;5081246;28;20123;-75
2021/12/15 12:22:28;;;;;;;10.63;5.93;;;5.20;99.90;;;;;;5079900;28;20031;-75
2021/12/15 12:24:57;;;;;;;10.27;7.07;;;5.20;99.90;;;;;;5080939;28;20127;-75
2021/12/15 12:27:25;;;;;;;9.90;6.50;;;5.20;99.90;;;;;;5079956;28;20485;-75
2021/12/15 12:29:53;;;;;;;10.30;6.67;;;5.20;99.90;;;;;;5063397;28;20047;-75
2021/12/15 12:32:19;;;;;;;9.70;6.57;;;5.20;99.90;;;;;;5060325;28;20040;-74
2021/12/15 12:34:45;;;;;;;14.10;7.83;;;5.20;99.90;;;;;;5061872;28;20116;-75
2021/12/15 12:37:13;;;;;;;44.77;28.97;;;5.20;99.90;;;;;;5063403;28;20111;-75
2021/12/15 12:39:39;;;;;;;22.30;16.17;;;5.20;99.90;;;;;;5081350;28;20054;-74
2021/12/15 12:42:07;;;;;;;12.43;7.97;;;5.20;99.90;;;;;;5081904;28;20036;-74
2021/12/15 12:44:39;;;;;;;10.40;6.83;;;5.30;99.90;;;;;;5082188;28;20027;-74
2021/12/15 12:47:28;;;;;;;10.67;6.97;;;5.20;99.90;;;;;;5079439;28;20028;-74
2021/12/15 12:50:16;;;;;;;9.97;7.63;;;5.20;99.90;;;;;;5082893;28;20105;-74
2021/12/15 13:01:04;;;;;;;12.57;8.30;;;5.30;99.90;;;;;;5059302;28;20025;-75
2021/12/15 13:03:46;;;;;;;14.70;9.83;;;5.40;99.90;;;;;;5055367;28;20715;-79
2021/12/15 13:06:14;;;;;;;14.87;9.40;;;5.30;99.90;;;;;;5051170;28;20021;-80
2021/12/15 13:08:45;;;;;;;16.63;10.27;;;5.30;99.90;;;;;;5051514;28;20465;-79
2021/12/15 13:11:19;;;;;;;19.60;12.03;;;5.20;99.90;;;;;;5068089;28;20477;-79
2021/12/15 13:13:58;;;;;;;16.17;10.03;;;5.20;99.90;;;;;;5071161;28;20107;-80
2021/12/15 13:16:50;;;;;;;9.77;7.10;;;5.10;99.90;;;;;;5054910;28;20035;-78
2021/12/15 13:19:37;;;;;;;11.27;6.87;;;5.30;99.90;;;;;;5071275;28;20067;-77
2021/12/15 13:30:50;;;;;;;14.57;9.77;;;5.20;99.90;;;;;;5070344;28;20048;-79
2021/12/15 13:33:39;;;;;;;13.23;9.03;;;5.10;99.90;;;;;;5070437;28;20039;-80
2021/12/15 13:36:20;;;;;;;15.50;10.33;;;5.10;99.90;;;;;;5067809;28;20052;-79
2021/12/15 13:38:55;;;;;;;17.80;10.67;;;5.00;99.90;;;;;;5070910;28;20120;-79
2021/12/15 13:41:38;;;;;;;;;;;5.00;99.90;;;;;;5053496;28;20504;-79
2021/12/15 13:44:17;;;;;;;17.97;11.73;;;5.00;99.90;;;;;;5071089;28;19904;-79
2021/12/15 13:46:47;;;;;;;21.43;12.33;;;5.00;99.90;;;;;;5071141;28;20024;-79
2021/12/15 13:49:29;;;;;;;22.93;13.13;;;5.00;99.90;;;;;;5070658;28;20020;-79
2021/12/15 13:52:29;;;;;;;25.03;13.07;;;5.00;99.90;;;;;;5071149;28;20028;-79
2021/12/15 13:55:00;;;;;;;17.40;11.53;;;5.00;99.90;;;;;;5071965;28;20032;-75
2021/12/15 13:57:37;;;;;;;18.03;11.83;;;5.00;99.90;;;;;;5073486;28;20025;-75
2021/12/15 14:00:11;;;;;;;17.07;11.13;;;5.00;99.90;;;;;;5054557;28;20024;-75
2021/12/15 14:02:52;;;;;;;14.57;9.98;;;4.90;99.90;;;;;;5073434;28;20035;-75
2021/12/15 14:05:17;;;;;;;16.30;10.93;;;4.90;99.90;;;;;;5073402;28;20024;-81
2021/12/15 14:07:46;;;;;;;14.57;9.93;;;4.90;99.90;;;;;;5072278;28;20081;-75
2021/12/15 14:10:12;;;;;;;14.87;10.07;;;4.90;99.90;;;;;;5070860;28;20040;-79
2021/12/15 14:12:47;;;;;;;16.53;10.70;;;4.90;99.90;;;;;;5070055;28;20433;-76
2021/12/15 14:15:15;;;;;;;;;;;4.90;99.90;;;;;;5066449;28;20032;-80
2021/12/15 14:17:41;;;;;;;17.00;10.07;;;4.80;99.90;;;;;;5070862;28;19904;-80